Dagmar, Montana
Current Conditions -  °F | °C
As of 3:52 AM on Monday 20 Oct 2014 (Local Time) from KISN Reporting Station
Clear Clear  
Wind Chill: 34°   Ceiling: Unl
Heat Index: 34°   Visibility: 10mi
Dew Point: 31°   Wind: 0mph
Humidity: 89%   Direction: NA
Pressure: 29.99"   Gusts: NA
Location:  48.58°N, 104.2°W
Report Text: KISN 200952Z AUTO 00000KT 10SM CLR 01/M01 A2999 RMK AO2 SLP162 T00111006
Loading
Personal Weather Stations






























Interactive Weather Map
Tropical Storm Tracking
New forecast layout! Learn more

10-Day Weather Forecast

Advertisements
Track Severe Weather on mobile